Time;durP1;ratioP1;P1;durP2;ratioP2;P2;SDS_P1;SDS_P2;PMS_P1;PMS_P2;Temp;Humidity;BMP_temperature;BMP_pressure;BME280_temperature;BME280_humidity;BME280_pressure;Samples;Min_cycle;Max_cycle;Signal;HPM_P1;HPM_P2
2022/09/09 00:02:13;;;;;;;3.33;0.75;;;19.20;90.40;;;;;;5074039;28;20035;-72
2022/09/09 00:04:40;;;;;;;1.48;0.63;;;19.30;90.40;;;;;;5073521;28;20027;-72
2022/09/09 00:07:16;;;;;;;1.40;0.43;;;19.40;90.40;;;;;;5073579;28;20067;-72
2022/09/09 00:09:58;;;;;;;1.60;0.60;;;19.40;90.30;;;;;;5073679;28;20531;-72
2022/09/09 00:12:55;;;;;;;1.98;0.70;;;19.50;90.30;;;;;;5073838;28;20038;-72
2022/09/09 00:15:42;;;;;;;4.50;0.80;;;19.50;90.20;;;;;;5073774;28;20040;-72
2022/09/09 00:18:36;;;;;;;1.77;0.95;;;19.60;90.10;;;;;;5073414;28;20103;-72
2022/09/09 00:21:34;;;;;;;2.13;1.00;;;19.60;90.00;;;;;;5073547;28;20028;-71
2022/09/09 00:24:07;;;;;;;3.70;0.70;;;19.60;89.90;;;;;;5073622;28;20025;-72
2022/09/09 00:26:44;;;;;;;1.70;0.88;;;19.60;89.80;;;;;;5073273;28;20049;-73
2022/09/09 00:29:22;;;;;;;4.13;1.05;;;19.70;89.80;;;;;;5073442;28;20024;-72
2022/09/09 00:31:47;;;;;;;2.17;0.80;;;19.80;89.70;;;;;;5073482;28;20103;-73
2022/09/09 00:34:18;;;;;;;1.88;1.20;;;19.80;89.40;;;;;;5073233;28;20162;-72
2022/09/09 00:36:47;;;;;;;2.75;1.25;;;19.80;89.40;;;;;;5073049;28;20071;-72
2022/09/09 00:39:22;;;;;;;2.28;0.90;;;19.80;89.40;;;;;;5073170;28;20025;-72
2022/09/09 00:42:17;;;;;;;1.20;0.80;;;19.90;89.30;;;;;;5073558;28;20027;-73
2022/09/09 00:44:52;;;;;;;2.08;0.80;;;19.90;89.30;;;;;;5073493;28;20111;-73
2022/09/09 00:47:29;;;;;;;1.77;0.80;;;20.00;89.40;;;;;;5073459;28;20067;-73
2022/09/09 00:50:24;;;;;;;3.75;1.05;;;19.90;89.30;;;;;;5073449;28;20039;-73
2022/09/09 00:53:01;;;;;;;1.90;1.13;;;20.00;89.20;;;;;;5073086;28;20454;-73
2022/09/09 00:55:57;;;;;;;3.85;0.95;;;20.00;89.10;;;;;;5073196;28;20032;-73
2022/09/09 00:58:23;;;;;;;1.95;0.95;;;20.00;89.10;;;;;;5073246;28;20024;-73
2022/09/09 01:01:06;;;;;;;2.17;1.30;;;20.00;89.00;;;;;;5073258;28;20032;-73
2022/09/09 01:03:39;;;;;;;2.10;1.00;;;20.00;88.90;;;;;;5073344;28;20103;-73
2022/09/09 01:06:36;;;;;;;2.03;1.23;;;19.90;89.00;;;;;;5073084;28;20043;-73
2022/09/09 01:09:51;;;;;;;1.25;0.65;;;19.90;89.00;;;;;;5068954;28;20059;-73
2022/09/09 01:12:42;;;;;;;1.92;0.70;;;19.90;88.90;;;;;;5030924;28;20022;-73
2022/09/09 01:15:34;;;;;;;2.08;0.63;;;19.90;88.70;;;;;;5072923;28;20036;-72
2022/09/09 01:18:16;;;;;;;2.47;0.88;;;19.90;89.30;;;;;;5071070;28;20129;-73
2022/09/09 01:21:15;;;;;;;2.42;0.68;;;19.90;88.70;;;;;;5072893;28;20111;-73
2022/09/09 01:24:29;;;;;;;6.13;0.70;;;19.90;88.60;;;;;;5072763;28;20028;-73
2022/09/09 01:27:00;;;;;;;2.63;0.68;;;19.90;88.60;;;;;;5068907;28;20079;-73
2022/09/09 01:29:26;;;;;;;1.88;0.50;;;19.90;88.60;;;;;;5073111;28;20024;-73
2022/09/09 01:31:53;;;;;;;2.65;0.50;;;19.90;88.60;;;;;;5073257;28;20375;-73
2022/09/09 01:34:19;;;;;;;1.60;0.43;;;19.90;88.60;;;;;;5072761;28;20032;-73
2022/09/09 01:37:07;;;;;;;1.83;0.30;;;19.80;89.00;;;;;;5072781;28;20024;-73
2022/09/09 01:39:35;;;;;;;3.17;0.50;;;19.80;88.50;;;;;;5072993;28;20033;-73
2022/09/09 01:42:02;;;;;;;2.40;0.50;;;19.80;88.40;;;;;;5072903;28;20035;-73
2022/09/09 01:44:29;;;;;;;1.08;0.25;;;19.80;88.40;;;;;;5072964;28;20075;-73
2022/09/09 01:46:55;;;;;;;1.65;0.40;;;19.80;88.30;;;;;;5072567;28;20103;-73
2022/09/09 01:49:21;;;;;;;1.60;0.30;;;19.70;88.20;;;;;;5074200;28;20448;-73
2022/09/09 01:51:52;;;;;;;2.30;0.50;;;19.70;88.20;;;;;;5076203;28;20052;-73
2022/09/09 01:54:23;;;;;;;1.67;0.47;;;19.70;88.10;;;;;;5076127;28;20044;-73
2022/09/09 01:57:12;;;;;;;1.15;0.32;;;19.70;88.00;;;;;;5076224;28;20044;-73
2022/09/09 01:59:45;;;;;;;2.42;0.40;;;19.70;88.10;;;;;;5076305;28;20032;-73
2022/09/09 02:02:26;;;;;;;2.30;0.40;;;19.70;88.00;;;;;;5076359;28;20493;-73
2022/09/09 02:05:04;;;;;;;1.48;0.50;;;19.80;88.10;;;;;;5076350;28;20031;-73
2022/09/09 02:07:38;;;;;;;1.88;0.50;;;19.70;87.90;;;;;;5076304;28;20398;-73
2022/09/09 02:10:31;;;;;;;2.00;0.50;;;19.70;87.80;;;;;;5075799;28;20475;-73
2022/09/09 02:13:09;;;;;;;0.97;0.50;;;19.70;87.70;;;;;;5075860;28;20111;-73
2022/09/09 02:15:57;;;;;;;2.30;0.40;;;19.70;87.50;;;;;;5075773;28;20497;-73
2022/09/09 02:18:50;;;;;;;1.77;0.68;;;19.70;87.30;;;;;;5075693;28;20025;-73
2022/09/09 02:21:17;;;;;;;2.42;0.60;;;19.70;87.30;;;;;;5075658;28;20021;-73
2022/09/09 02:23:44;;;;;;;1.77;0.50;;;19.70;87.20;;;;;;5075486;28;20024;-73
2022/09/09 02:26:14;;;;;;;1.95;0.60;;;19.70;87.10;;;;;;5075519;28;20048;-73
2022/09/09 02:28:42;;;;;;;2.35;0.73;;;19.70;87.10;;;;;;5075899;28;20024;-73
2022/09/09 02:31:07;;;;;;;2.28;0.73;;;19.60;86.90;;;;;;5075931;28;20093;-73
2022/09/09 02:33:40;;;;;;;1.42;0.60;;;19.60;86.90;;;;;;5075435;28;20476;-73
2022/09/09 02:36:08;;;;;;;1.00;0.50;;;19.60;86.90;;;;;;5075322;28;20035;-73
2022/09/09 02:38:40;;;;;;;1.65;0.60;;;19.60;87.00;;;;;;5075427;28;20039;-73
2022/09/09 02:41:06;;;;;;;0.95;0.50;;;19.60;86.90;;;;;;5075788;28;20025;-73
2022/09/09 02:43:33;;;;;;;1.55;0.60;;;19.60;87.00;;;;;;5075591;28;20029;-73
2022/09/09 02:46:26;;;;;;;1.50;0.52;;;19.50;86.90;;;;;;5075380;28;20031;-73
2022/09/09 02:48:58;;;;;;;0.52;0.38;;;19.50;86.90;;;;;;5075320;28;20107;-73
2022/09/09 02:51:35;;;;;;;1.45;0.50;;;19.50;86.90;;;;;;5075500;28;20025;-73
2022/09/09 02:54:30;;;;;;;1.15;0.40;;;19.50;86.90;;;;;;5075392;28;20033;-73
2022/09/09 02:57:27;;;;;;;2.25;0.57;;;19.50;86.80;;;;;;5075276;28;20024;-73
2022/09/09 02:59:56;;;;;;;1.17;0.30;;;19.50;86.80;;;;;;5071695;28;20033;-73
2022/09/09 03:02:22;;;;;;;1.67;0.60;;;19.50;86.70;;;;;;5074880;28;20051;-73
2022/09/09 03:04:51;;;;;;;2.13;0.50;;;19.50;87.20;;;;;;5075196;28;20468;-73
2022/09/09 03:07:18;;;;;;;1.60;1.00;;;19.50;86.50;;;;;;5074830;28;20046;-73
2022/09/09 03:09:44;;;;;;;2.05;0.40;;;19.50;86.40;;;;;;5075144;28;20024;-73
2022/09/09 03:12:11;;;;;;;2.63;0.52;;;19.50;86.40;;;;;;5075107;28;20028;-73
2022/09/09 03:14:37;;;;;;;2.97;0.50;;;19.50;86.40;;;;;;5074757;28;20032;-73
2022/09/09 03:17:04;;;;;;;1.17;0.47;;;19.50;86.40;;;;;;5074699;28;20024;-73
2022/09/09 03:19:30;;;;;;;1.15;0.60;;;19.50;86.40;;;;;;5074821;28;20052;-73
2022/09/09 03:21:55;;;;;;;2.30;0.60;;;19.50;86.40;;;;;;5074605;28;20040;-73
2022/09/09 03:24:22;;;;;;;1.70;0.28;;;19.40;86.40;;;;;;5074818;28;20031;-73
2022/09/09 03:26:48;;;;;;;2.95;1.15;;;19.50;86.60;;;;;;5074070;28;20098;-73
2022/09/09 03:29:14;;;;;;;3.22;0.70;;;19.40;86.60;;;;;;5074343;28;20025;-73
2022/09/09 03:31:40;;;;;;;1.00;0.50;;;19.40;86.60;;;;;;5074423;28;20495;-73
2022/09/09 03:34:06;;;;;;;2.33;0.55;;;19.40;86.70;;;;;;5074427;28;20090;-73
2022/09/09 03:36:32;;;;;;;1.27;0.50;;;19.40;86.80;;;;;;5073965;28;20421;-73
2022/09/09 03:38:59;;;;;;;1.90;0.65;;;19.40;86.90;;;;;;5074458;28;20028;-73
2022/09/09 03:41:26;;;;;;;2.15;0.55;;;19.30;87.00;;;;;;5074179;28;20491;-73
2022/09/09 03:43:51;;;;;;;1.48;0.70;;;19.30;87.10;;;;;;5074216;28;20029;-73
2022/09/09 03:46:18;;;;;;;1.25;0.50;;;19.20;87.20;;;;;;5073991;28;20020;-73
2022/09/09 03:48:44;;;;;;;1.38;0.50;;;19.20;87.30;;;;;;5074292;28;20098;-73
2022/09/09 03:51:10;;;;;;;3.20;0.70;;;19.30;87.40;;;;;;5074253;28;20071;-73
2022/09/09 03:53:37;;;;;;;2.13;0.50;;;19.30;87.40;;;;;;5074150;28;20041;-73
2022/09/09 03:56:04;;;;;;;2.08;0.50;;;19.30;87.30;;;;;;5074129;28;20082;-73
2022/09/09 03:58:29;;;;;;;1.45;0.65;;;19.30;87.40;;;;;;5073720;28;20552;-73
2022/09/09 04:00:56;;;;;;;4.85;0.70;;;19.30;87.50;;;;;;5074135;28;20079;-73
2022/09/09 04:03:24;;;;;;;6.20;1.30;;;19.30;87.50;;;;;;5073697;28;20031;-73
2022/09/09 04:05:53;;;;;;;1.33;0.50;;;19.30;88.00;;;;;;5073996;28;20383;-73
2022/09/09 04:08:20;;;;;;;1.33;0.70;;;19.30;87.50;;;;;;5073728;28;20024;-73
2022/09/09 04:10:47;;;;;;;1.85;0.70;;;19.30;87.60;;;;;;5073999;28;20055;-73
2022/09/09 04:13:15;;;;;;;2.58;0.57;;;19.30;87.70;;;;;;5073609;28;20430;-73
2022/09/09 04:15:40;;;;;;;3.45;0.52;;;19.30;87.80;;;;;;5073886;28;20050;-73
2022/09/09 04:18:06;;;;;;;5.13;1.15;;;19.30;87.80;;;;;;5073795;28;20095;-73
2022/09/09 04:20:32;;;;;;;3.05;0.80;;;19.30;87.80;;;;;;5073491;28;20115;-73
2022/09/09 04:22:58;;;;;;;3.72;0.73;;;19.20;87.90;;;;;;5073587;28;20395;-73
2022/09/09 04:25:24;;;;;;;1.45;0.80;;;19.20;88.00;;;;;;5073615;28;20099;-73
2022/09/09 04:27:54;;;;;;;2.42;0.80;;;19.20;88.10;;;;;;5074647;28;20408;-73
2022/09/09 04:30:20;;;;;;;2.25;0.85;;;19.20;88.40;;;;;;5073621;28;20029;-73
2022/09/09 04:32:46;;;;;;;1.90;1.05;;;19.20;88.40;;;;;;5073536;28;20032;-73
2022/09/09 04:35:12;;;;;;;3.00;1.00;;;19.10;88.40;;;;;;5073577;28;20031;-73
2022/09/09 04:37:37;;;;;;;2.20;0.60;;;19.20;88.50;;;;;;5072970;28;20020;-73
2022/09/09 04:40:03;;;;;;;2.20;0.82;;;19.20;88.40;;;;;;5073393;28;20046;-73
2022/09/09 04:42:29;;;;;;;6.13;1.48;;;19.20;88.50;;;;;;5073220;28;20024;-73
2022/09/09 04:44:54;;;;;;;5.22;1.20;;;19.20;88.70;;;;;;5073169;28;20031;-73
2022/09/09 04:47:21;;;;;;;2.90;0.73;;;19.10;89.00;;;;;;5073476;28;20052;-73
2022/09/09 04:49:47;;;;;;;4.38;0.98;;;19.00;89.00;;;;;;5073253;28;20479;-73
2022/09/09 04:52:12;;;;;;;3.13;0.70;;;19.00;89.10;;;;;;5073127;28;20036;-73
2022/09/09 04:54:38;;;;;;;3.28;0.93;;;19.10;89.20;;;;;;5073181;28;20032;-73
2022/09/09 04:57:04;;;;;;;2.05;0.90;;;19.10;89.10;;;;;;5073322;28;20021;-73
2022/09/09 04:59:30;;;;;;;5.68;0.93;;;19.10;89.20;;;;;;5073132;28;20028;-73
2022/09/09 05:01:56;;;;;;;3.13;1.08;;;19.10;89.20;;;;;;5073324;28;20020;-73
2022/09/09 05:04:21;;;;;;;3.17;1.05;;;19.10;89.40;;;;;;5073023;28;20024;-73
2022/09/09 05:06:48;;;;;;;4.10;1.10;;;19.10;89.50;;;;;;5073192;28;20067;-73
2022/09/09 05:09:13;;;;;;;4.07;1.50;;;19.20;89.70;;;;;;5073035;28;20031;-73
2022/09/09 05:11:39;;;;;;;1.85;0.77;;;19.10;90.10;;;;;;5073023;28;20025;-73
2022/09/09 05:14:05;;;;;;;3.13;0.98;;;19.20;89.80;;;;;;5072722;28;20120;-73
2022/09/09 05:16:31;;;;;;;3.78;1.00;;;19.20;89.80;;;;;;5072912;28;20032;-73
2022/09/09 05:18:57;;;;;;;3.65;1.13;;;19.30;90.00;;;;;;5073156;28;20050;-73
2022/09/09 05:21:26;;;;;;;2.65;1.00;;;19.20;90.00;;;;;;5072690;28;20027;-73
2022/09/09 05:23:52;;;;;;;6.07;0.75;;;19.20;90.10;;;;;;5074272;28;20028;-73
2022/09/09 05:26:19;;;;;;;5.47;1.17;;;19.10;90.20;;;;;;5077065;28;20414;-73
2022/09/09 05:28:46;;;;;;;3.28;0.93;;;19.20;90.30;;;;;;5076376;28;20085;-73
2022/09/09 05:31:12;;;;;;;3.47;0.90;;;19.10;90.40;;;;;;5076740;28;20024;-73
2022/09/09 05:33:43;;;;;;;5.05;0.90;;;19.10;90.50;;;;;;5076561;28;20036;-73
2022/09/09 05:36:13;;;;;;;3.55;0.90;;;19.10;90.60;;;;;;5076708;28;20026;-73
2022/09/09 05:38:40;;;;;;;4.00;1.40;;;19.10;90.80;;;;;;5077132;28;20052;-73
2022/09/09 05:41:07;;;;;;;7.28;1.10;;;19.00;90.90;;;;;;5076280;28;20020;-73
2022/09/09 05:43:32;;;;;;;5.78;1.35;;;19.00;91.10;;;;;;5076369;28;20404;-73
2022/09/09 05:46:07;;;;;;;3.00;1.00;;;18.90;91.30;;;;;;5076329;28;20024;-73
2022/09/09 05:48:34;;;;;;;4.03;1.13;;;18.90;91.40;;;;;;5076331;28;20433;-73
2022/09/09 05:51:02;;;;;;;4.32;0.93;;;18.90;91.50;;;;;;5076283;28;20027;-73
2022/09/09 05:53:32;;;;;;;5.15;1.10;;;18.80;91.50;;;;;;5076535;28;20033;-73
2022/09/09 05:56:03;;;;;;;4.57;1.30;;;18.80;91.60;;;;;;5076464;28;20025;-73
2022/09/09 05:58:35;;;;;;;4.53;1.33;;;18.80;91.60;;;;;;5076355;28;20078;-73
2022/09/09 06:01:09;;;;;;;8.32;1.23;;;18.90;91.60;;;;;;5076528;28;20100;-73
2022/09/09 06:03:36;;;;;;;4.90;1.63;;;18.90;91.80;;;;;;5075944;28;20033;-73
2022/09/09 06:06:05;;;;;;;9.52;1.40;;;18.80;91.90;;;;;;5075951;28;20610;-73
2022/09/09 06:08:32;;;;;;;6.30;1.20;;;18.80;92.00;;;;;;5076113;28;20043;-73
2022/09/09 06:11:05;;;;;;;4.18;1.27;;;18.80;92.10;;;;;;5076110;28;20043;-73
2022/09/09 06:13:31;;;;;;;5.30;1.40;;;18.80;92.20;;;;;;5075688;28;20020;-73
2022/09/09 06:15:58;;;;;;;4.22;1.58;;;18.90;92.30;;;;;;5075838;28;20383;-73
2022/09/09 06:18:25;;;;;;;7.22;1.45;;;18.80;92.10;;;;;;5075811;28;20025;-73
2022/09/09 06:21:00;;;;;;;6.28;2.05;;;18.90;92.20;;;;;;5075736;28;20071;-73
2022/09/09 06:23:26;;;;;;;8.38;1.60;;;18.90;92.10;;;;;;5075653;28;20029;-73
2022/09/09 06:26:00;;;;;;;10.65;1.80;;;19.00;92.20;;;;;;5075608;28;20032;-73
2022/09/09 06:28:26;;;;;;;5.15;1.55;;;19.00;92.30;;;;;;5075261;28;20040;-73
2022/09/09 06:31:01;;;;;;;5.93;1.70;;;18.90;92.40;;;;;;5075474;28;20037;-73
2022/09/09 06:33:30;;;;;;;6.50;1.85;;;18.80;92.60;;;;;;5075364;28;20045;-73
2022/09/09 06:35:56;;;;;;;6.03;1.60;;;18.80;92.70;;;;;;5074456;28;20083;-73
2022/09/09 06:38:23;;;;;;;6.32;1.40;;;18.80;92.90;;;;;;5075711;28;20029;-73
2022/09/09 06:40:56;;;;;;;6.38;1.35;;;18.80;92.80;;;;;;5075037;28;20024;-73
2022/09/09 06:43:22;;;;;;;7.20;1.15;;;18.80;92.70;;;;;;5075591;28;20028;-73
2022/09/09 06:46:03;;;;;;;9.23;1.80;;;18.80;92.70;;;;;;5075388;28;20024;-73
2022/09/09 06:48:28;;;;;;;6.00;0.93;;;18.80;92.70;;;;;;5075456;28;20517;-73
2022/09/09 06:51:12;;;;;;;8.20;1.10;;;18.80;92.80;;;;;;5075284;28;20052;-73
2022/09/09 06:53:39;;;;;;;6.60;0.98;;;18.80;92.90;;;;;;5075073;28;20383;-73
2022/09/09 06:56:25;;;;;;;5.70;1.30;;;18.80;93.00;;;;;;5075278;28;20039;-73
2022/09/09 06:58:52;;;;;;;7.68;1.10;;;18.80;92.90;;;;;;5074846;28;20400;-73
2022/09/09 07:01:20;;;;;;;6.35;1.00;;;18.80;93.20;;;;;;5075153;28;20082;-73
2022/09/09 07:03:48;;;;;;;6.32;1.00;;;18.80;93.00;;;;;;5075283;28;20044;-73
2022/09/09 07:06:19;;;;;;;5.97;1.30;;;18.80;93.40;;;;;;5074882;28;20396;-73
2022/09/09 07:08:52;;;;;;;6.15;1.10;;;18.80;93.60;;;;;;5074900;28;20024;-73
2022/09/09 07:11:19;;;;;;;5.78;1.15;;;18.90;93.20;;;;;;5075019;28;20033;-73
2022/09/09 07:13:45;;;;;;;6.63;1.17;;;18.90;93.00;;;;;;5074907;28;20072;-73
2022/09/09 07:16:13;;;;;;;10.77;1.67;;;19.00;93.00;;;;;;5074652;28;20114;-73
2022/09/09 07:18:39;;;;;;;5.88;0.75;;;19.00;92.70;;;;;;5074735;28;20384;-73
2022/09/09 07:21:06;;;;;;;9.00;1.45;;;19.00;92.70;;;;;;5074561;28;20067;-73
2022/09/09 07:23:32;;;;;;;12.95;2.22;;;19.00;93.00;;;;;;5074311;28;20480;-73
2022/09/09 07:25:58;;;;;;;6.05;1.10;;;19.00;93.00;;;;;;5074731;28;20059;-73
2022/09/09 07:28:26;;;;;;;5.55;1.30;;;19.10;93.00;;;;;;5074117;28;20059;-73
2022/09/09 07:30:59;;;;;;;8.18;1.23;;;19.00;93.10;;;;;;5074647;28;20036;-72
2022/09/09 07:33:25;;;;;;;6.03;1.33;;;19.00;93.00;;;;;;5074114;28;20052;-73
2022/09/09 07:35:51;;;;;;;6.60;1.17;;;19.00;93.20;;;;;;5074119;28;20082;-73
2022/09/09 07:38:18;;;;;;;5.55;1.08;;;19.00;93.50;;;;;;5074191;28;20358;-73
2022/09/09 07:40:44;;;;;;;9.10;1.30;;;19.00;93.40;;;;;;5074148;28;20549;-73
2022/09/09 07:43:11;;;;;;;10.38;1.40;;;19.00;93.30;;;;;;5074157;28;20032;-73
2022/09/09 07:45:37;;;;;;;5.28;1.10;;;19.10;93.20;;;;;;5074039;28;20052;-73
2022/09/09 07:48:03;;;;;;;6.68;1.13;;;19.20;92.90;;;;;;5073499;28;20036;-73
2022/09/09 07:50:29;;;;;;;6.45;1.35;;;19.20;92.90;;;;;;5073489;28;20150;-73
2022/09/09 07:52:55;;;;;;;6.90;1.60;;;19.20;92.60;;;;;;5074044;28;20131;-73
2022/09/09 07:55:22;;;;;;;8.48;1.50;;;19.20;92.60;;;;;;5074139;28;20020;-73
2022/09/09 07:57:47;;;;;;;10.43;1.25;;;19.10;92.70;;;;;;5073938;28;20504;-72
2022/09/09 08:00:14;;;;;;;5.40;1.70;;;19.00;92.80;;;;;;5073672;28;20099;-73
2022/09/09 08:02:40;;;;;;;10.68;1.23;;;19.00;92.80;;;;;;5073924;28;20035;-72
2022/09/09 08:05:06;;;;;;;11.70;1.27;;;19.00;93.00;;;;;;5073923;28;20371;-72
2022/09/09 08:07:32;;;;;;;10.35;1.25;;;19.00;92.50;;;;;;5073568;28;20565;-72
2022/09/09 08:09:58;;;;;;;8.52;1.02;;;19.00;92.80;;;;;;5073846;28;20052;-72
2022/09/09 08:12:24;;;;;;;6.85;1.00;;;19.00;92.20;;;;;;5073413;28;20066;-72
2022/09/09 08:14:51;;;;;;;11.90;1.55;;;19.00;92.40;;;;;;5073773;28;20036;-72
2022/09/09 08:17:16;;;;;;;6.40;0.88;;;19.00;91.90;;;;;;5073536;28;20472;-72
2022/09/09 08:19:42;;;;;;;9.48;1.45;;;18.90;92.00;;;;;;5073625;28;20089;-72
2022/09/09 08:22:08;;;;;;;6.38;0.98;;;18.90;92.10;;;;;;5073089;28;20016;-72
2022/09/09 08:24:34;;;;;;;6.97;0.88;;;18.90;92.30;;;;;;5073716;28;20021;-72
2022/09/09 08:26:59;;;;;;;8.00;1.23;;;19.00;92.50;;;;;;5073276;28;20028;-72
2022/09/09 08:29:25;;;;;;;6.63;0.80;;;19.00;92.30;;;;;;5073421;28;20036;-72
2022/09/09 08:31:54;;;;;;;7.38;1.40;;;19.00;92.30;;;;;;5073450;28;20410;-72
2022/09/09 08:34:20;;;;;;;6.00;0.85;;;19.10;92.40;;;;;;5072712;28;20063;-72
2022/09/09 08:36:47;;;;;;;7.18;0.95;;;19.10;92.00;;;;;;5073445;28;20067;-72
2022/09/09 08:39:15;;;;;;;5.00;0.90;;;19.00;92.10;;;;;;5073163;28;20472;-72
2022/09/09 08:42:02;;;;;;;9.48;1.20;;;19.00;92.30;;;;;;5073524;28;20024;-72
2022/09/09 08:45:04;;;;;;;11.25;1.10;;;19.00;92.20;;;;;;5072925;28;20107;-72
2022/09/09 08:47:51;;;;;;;9.80;1.55;;;18.90;92.30;;;;;;5073185;28;20020;-72
2022/09/09 08:50:24;;;;;;;9.57;1.20;;;18.90;92.20;;;;;;5073289;28;20112;-72
2022/09/09 08:53:04;;;;;;;10.00;0.90;;;18.90;92.10;;;;;;5072882;28;20048;-72
2022/09/09 08:55:39;;;;;;;7.47;1.08;;;18.90;92.20;;;;;;5073034;28;20024;-72
2022/09/09 08:58:17;;;;;;;6.10;0.73;;;19.00;92.30;;;;;;5072104;28;20469;-72
2022/09/09 09:00:55;;;;;;;6.05;0.85;;;19.00;92.20;;;;;;5073049;28;20112;-72
2022/09/09 09:03:34;;;;;;;6.63;1.15;;;19.10;92.40;;;;;;5073010;28;20426;-72
2022/09/09 09:06:23;;;;;;;5.40;0.90;;;19.10;92.10;;;;;;5072207;28;20040;-72
2022/09/09 09:09:13;;;;;;;7.03;0.68;;;19.10;91.40;;;;;;5072327;28;20032;-72
2022/09/09 09:11:52;;;;;;;6.80;0.80;;;19.10;91.40;;;;;;5072816;28;20031;-72
2022/09/09 09:14:23;;;;;;;6.53;0.75;;;19.00;91.20;;;;;;5072895;28;20043;-73
2022/09/09 09:17:06;;;;;;;6.43;0.77;;;19.10;91.50;;;;;;5072861;28;20017;-73
2022/09/09 09:19:34;;;;;;;6.95;0.82;;;19.10;91.20;;;;;;5072897;28;20063;-73
2022/09/09 09:22:28;;;;;;;6.20;0.60;;;19.00;91.30;;;;;;5072092;28;20032;-73
2022/09/09 09:24:59;;;;;;;5.15;0.52;;;19.10;91.30;;;;;;5072855;28;20025;-73
2022/09/09 09:27:32;;;;;;;6.97;0.85;;;19.10;91.20;;;;;;5072542;28;20503;-73
2022/09/09 09:30:13;;;;;;;5.68;1.13;;;19.20;91.40;;;;;;5072759;28;20161;-73
2022/09/09 09:32:43;;;;;;;5.28;0.82;;;19.10;90.90;;;;;;5072513;28;20437;-73
2022/09/09 09:35:13;;;;;;;5.38;0.70;;;19.10;90.90;;;;;;5072999;28;20028;-73
2022/09/09 09:37:40;;;;;;;10.40;0.98;;;19.10;90.80;;;;;;5072845;28;20020;-73
2022/09/09 09:40:13;;;;;;;7.45;0.50;;;19.10;90.90;;;;;;5072643;28;20021;-73
2022/09/09 09:42:48;;;;;;;;;;;19.20;91.00;;;;;;5072816;28;20017;-73
2022/09/09 09:45:29;;;;;;;7.38;0.60;;;19.20;90.70;;;;;;5072510;28;19930;-73
2022/09/09 09:48:05;;;;;;;7.90;1.05;;;19.20;90.80;;;;;;5072829;28;20035;-73
2022/09/09 09:50:32;;;;;;;4.25;0.70;;;19.30;90.90;;;;;;5072621;28;20479;-73
2022/09/09 09:53:04;;;;;;;4.82;1.10;;;19.30;90.40;;;;;;5072742;28;20035;-73
2022/09/09 09:55:33;;;;;;;5.22;0.70;;;19.30;90.50;;;;;;5072520;28;20392;-73
2022/09/09 09:58:06;;;;;;;4.43;0.63;;;19.40;90.20;;;;;;5072416;28;20024;-73
2022/09/09 10:00:36;;;;;;;6.80;0.95;;;19.50;90.20;;;;;;5072486;28;20031;-73
2022/09/09 10:03:01;;;;;;;7.97;0.88;;;19.50;90.40;;;;;;5072311;28;20476;-73
2022/09/09 10:05:35;;;;;;;7.03;0.63;;;19.50;90.70;;;;;;5072555;28;20024;-73
2022/09/09 10:08:12;;;;;;;4.07;0.52;;;19.50;90.30;;;;;;5072456;28;20039;-73
2022/09/09 10:11:05;;;;;;;4.43;0.50;;;19.50;90.20;;;;;;5074538;28;20472;-73
2022/09/09 10:13:46;;;;;;;8.15;1.10;;;19.40;90.00;;;;;;5076076;28;20029;-73
2022/09/09 10:16:37;;;;;;;8.70;0.82;;;19.40;90.20;;;;;;5075999;28;20487;-73
2022/09/09 10:19:35;;;;;;;6.90;0.77;;;19.30;90.00;;;;;;5075774;28;20028;-73
2022/09/09 10:22:31;;;;;;;8.07;0.82;;;19.30;90.30;;;;;;5067308;28;20063;-73
2022/09/09 10:25:18;;;;;;;4.97;0.95;;;19.30;90.70;;;;;;5075524;28;20028;-73
2022/09/09 10:27:49;;;;;;;6.40;0.68;;;19.30;90.20;;;;;;5075427;28;20044;-73
2022/09/09 10:30:22;;;;;;;6.65;0.90;;;19.30;90.30;;;;;;5075745;28;20028;-73
2022/09/09 10:33:09;;;;;;;11.18;1.52;;;19.30;90.50;;;;;;5075239;28;20025;-73
2022/09/09 10:35:58;;;;;;;7.22;0.82;;;19.30;90.40;;;;;;5075506;28;20107;-73
2022/09/09 10:38:38;;;;;;;8.13;0.65;;;19.30;90.40;;;;;;5075349;28;20025;-73
2022/09/09 10:41:13;;;;;;;6.53;0.70;;;19.40;90.40;;;;;;5075386;28;20486;-73
2022/09/09 10:44:10;;;;;;;9.90;0.70;;;19.40;90.90;;;;;;5075191;28;20028;-73
2022/09/09 10:46:55;;;;;;;7.38;0.77;;;19.40;90.30;;;;;;5075030;28;20036;-73
2022/09/09 10:49:34;;;;;;;6.57;0.75;;;19.40;90.40;;;;;;5075372;28;20024;-73
2022/09/09 10:52:34;;;;;;;8.48;0.82;;;19.40;90.70;;;;;;5075155;28;20586;-73
2022/09/09 10:54:59;;;;;;;7.57;0.63;;;19.30;90.40;;;;;;5075151;28;20336;-73
2022/09/09 10:57:41;;;;;;;10.60;1.00;;;19.30;90.70;;;;;;5075031;28;20032;-73
2022/09/09 11:00:14;;;;;;;9.20;1.20;;;19.40;90.70;;;;;;5074864;28;20024;-73
2022/09/09 11:02:41;;;;;;;4.85;0.70;;;19.40;90.20;;;;;;5075126;28;20025;-74
2022/09/09 11:05:21;;;;;;;5.78;0.65;;;19.50;90.20;;;;;;5075247;28;20035;-73
2022/09/09 11:07:50;;;;;;;6.43;0.60;;;19.50;90.20;;;;;;5074612;28;20492;-73
2022/09/09 11:10:24;;;;;;;5.22;0.68;;;19.40;90.20;;;;;;5074827;28;20035;-72
2022/09/09 11:12:53;;;;;;;4.97;0.55;;;19.50;90.10;;;;;;5074666;28;20495;-73
2022/09/09 11:15:41;;;;;;;8.10;0.82;;;19.50;90.30;;;;;;5074808;28;20028;-73
2022/09/09 11:18:19;;;;;;;9.55;0.90;;;19.50;90.00;;;;;;5074424;28;20032;-73
2022/09/09 11:20:47;;;;;;;9.10;1.02;;;19.40;90.00;;;;;;5074358;28;20476;-73
2022/09/09 11:23:20;;;;;;;4.80;0.57;;;19.30;90.50;;;;;;5074404;28;20376;-72
2022/09/09 11:25:57;;;;;;;4.18;0.70;;;19.30;91.10;;;;;;5074539;28;20052;-73
2022/09/09 11:28:32;;;;;;;6.80;0.60;;;19.30;91.60;;;;;;5074355;28;20117;-73
2022/09/09 11:31:16;;;;;;;6.60;0.95;;;19.40;92.00;;;;;;5074418;28;20107;-73
2022/09/09 11:33:43;;;;;;;7.20;0.85;;;19.50;92.20;;;;;;5074296;28;20471;-73
2022/09/09 11:36:30;;;;;;;4.65;0.80;;;19.50;92.30;;;;;;5074473;28;20040;-74
2022/09/09 11:39:38;;;;;;;6.25;0.85;;;19.60;92.50;;;;;;5074368;28;20052;-73
2022/09/09 11:42:12;;;;;;;5.80;0.80;;;19.60;92.70;;;;;;5065854;28;20103;-73
2022/09/09 11:44:38;;;;;;;7.30;0.90;;;19.60;92.30;;;;;;5074103;28;20380;-73
2022/09/09 11:47:26;;;;;;;9.00;0.95;;;19.60;92.20;;;;;;5074250;28;20020;-73
2022/09/09 11:49:53;;;;;;;5.90;0.60;;;19.60;92.20;;;;;;5074165;28;20330;-73
2022/09/09 11:52:39;;;;;;;8.10;0.70;;;19.60;92.40;;;;;;5073228;28;20021;-73
2022/09/09 11:55:29;;;;;;;7.60;0.80;;;19.70;92.40;;;;;;5073513;28;20039;-72
2022/09/09 11:58:13;;;;;;;9.75;1.58;;;19.70;91.90;;;;;;5073708;28;20103;-73
2022/09/09 12:00:45;;;;;;;7.50;0.68;;;19.70;92.20;;;;;;5073343;28;20031;-73
2022/09/09 12:03:50;;;;;;;5.40;0.45;;;19.70;92.40;;;;;;5072595;28;20027;-73
2022/09/09 12:06:41;;;;;;;5.03;0.68;;;19.70;92.60;;;;;;5030794;28;20029;-73
2022/09/09 12:09:15;;;;;;;3.88;0.65;;;19.70;92.80;;;;;;5030954;28;20029;-73
2022/09/09 12:11:41;;;;;;;4.80;0.85;;;19.90;92.90;;;;;;5060553;28;20044;-73
2022/09/09 12:14:34;;;;;;;4.88;0.65;;;20.00;92.90;;;;;;5073149;28;20488;-73
2022/09/09 12:17:24;;;;;;;4.88;0.75;;;19.90;93.00;;;;;;5073658;28;20036;-73
2022/09/09 12:20:12;;;;;;;4.30;0.85;;;19.90;92.60;;;;;;5073464;28;20032;-73
2022/09/09 12:22:51;;;;;;;4.60;0.70;;;19.90;92.10;;;;;;5073394;28;20024;-73
2022/09/09 12:25:44;;;;;;;4.10;0.50;;;19.90;92.40;;;;;;5073424;28;20032;-73
2022/09/09 12:28:18;;;;;;;3.58;0.60;;;19.80;92.00;;;;;;5073351;28;20055;-73
2022/09/09 12:30:52;;;;;;;8.10;0.50;;;19.70;92.10;;;;;;5073188;28;20028;-73
2022/09/09 12:33:19;;;;;;;5.05;0.60;;;19.70;92.30;;;;;;5072124;28;20510;-73
2022/09/09 12:35:51;;;;;;;5.05;0.65;;;19.60;92.40;;;;;;5073386;28;20495;-73
2022/09/09 12:38:26;;;;;;;6.35;0.90;;;19.60;92.40;;;;;;5072901;28;20397;-73
2022/09/09 12:40:57;;;;;;;3.88;0.43;;;19.70;92.30;;;;;;5073246;28;20479;-73
2022/09/09 12:43:24;;;;;;;4.97;0.50;;;19.70;92.40;;;;;;5073282;28;20035;-73
2022/09/09 12:45:57;;;;;;;5.18;0.50;;;19.80;92.30;;;;;;5073106;28;20028;-73
2022/09/09 12:48:30;;;;;;;4.90;0.85;;;19.80;92.10;;;;;;5073019;28;20032;-73
2022/09/09 12:50:56;;;;;;;5.45;0.50;;;19.90;92.30;;;;;;5072666;28;20016;-73
2022/09/09 12:53:29;;;;;;;6.40;0.70;;;19.90;91.90;;;;;;5072914;28;20081;-73
2022/09/09 12:56:03;;;;;;;5.00;0.68;;;19.90;91.90;;;;;;5073068;28;20048;-73
2022/09/09 12:58:32;;;;;;;4.60;0.57;;;19.90;92.20;;;;;;5073111;28;20124;-73
2022/09/09 13:01:00;;;;;;;5.40;0.70;;;19.80;91.90;;;;;;5072758;28;20153;-73
2022/09/09 13:03:26;;;;;;;3.00;0.70;;;19.80;91.90;;;;;;5073096;28;20036;-73
2022/09/09 13:05:53;;;;;;;3.05;0.40;;;19.80;91.90;;;;;;5072764;28;20467;-73
2022/09/09 13:08:20;;;;;;;4.28;0.55;;;19.80;91.70;;;;;;5072730;28;20040;-73
2022/09/09 13:10:55;;;;;;;2.35;0.30;;;19.70;91.50;;;;;;5072754;28;20479;-73
2022/09/09 13:13:29;;;;;;;3.38;0.60;;;19.70;91.70;;;;;;5073059;28;20063;-73
2022/09/09 13:16:00;;;;;;;5.15;1.20;;;19.60;92.20;;;;;;5073187;28;20028;-73
2022/09/09 13:18:38;;;;;;;1.85;0.40;;;19.60;92.80;;;;;;5072735;28;20024;-73